Time;durP1;ratioP1;P1;durP2;ratioP2;P2;SDS_P1;SDS_P2;PMS_P1;PMS_P2;Temp;Humidity;BMP_temperature;BMP_pressure;BME280_temperature;BME280_humidity;BME280_pressure;Samples;Min_cycle;Max_cycle;Signal;HPM_P1;HPM_P2
2024/02/29 00:00:41;;;;;;;10.93;8.27;;;12.00;94.20;;;;;;5073948;28;20399;-44
2024/02/29 00:03:08;;;;;;;11.82;8.52;;;11.90;94.10;;;;;;5073509;28;20024;-44
2024/02/29 00:05:35;;;;;;;12.13;8.73;;;11.90;94.20;;;;;;5073551;28;20024;-43
2024/02/29 00:08:01;;;;;;;13.50;8.60;;;11.90;94.20;;;;;;5073651;28;20419;-44
2024/02/29 00:10:28;;;;;;;12.43;8.23;;;11.90;94.20;;;;;;5073946;28;20509;-44
2024/02/29 00:12:54;;;;;;;12.00;8.30;;;11.90;94.20;;;;;;5073528;28;20383;-44
2024/02/29 00:15:20;;;;;;;11.98;8.45;;;11.90;94.20;;;;;;5073891;28;20020;-44
2024/02/29 00:17:45;;;;;;;12.48;8.57;;;11.80;94.20;;;;;;5072998;28;20099;-44
2024/02/29 00:20:11;;;;;;;11.48;8.18;;;11.80;94.20;;;;;;5073194;28;20497;-44
2024/02/29 00:22:37;;;;;;;10.48;8.25;;;11.80;94.20;;;;;;5073291;28;20037;-42
2024/02/29 00:25:03;;;;;;;12.63;8.40;;;11.80;94.20;;;;;;5071095;28;20025;-43
2024/02/29 00:27:30;;;;;;;13.27;8.63;;;11.80;94.20;;;;;;5072906;28;20043;-40
2024/02/29 00:29:56;;;;;;;13.40;9.32;;;11.80;94.20;;;;;;5072805;28;20025;-44
2024/02/29 00:32:22;;;;;;;11.88;8.77;;;11.80;94.20;;;;;;5073089;28;20033;-44
2024/02/29 00:34:48;;;;;;;11.82;8.40;;;11.80;94.30;;;;;;5072981;28;20051;-44
2024/02/29 00:37:14;;;;;;;12.10;8.57;;;11.70;94.20;;;;;;5070864;28;20386;-44
2024/02/29 00:39:39;;;;;;;12.60;8.63;;;11.70;94.20;;;;;;5072682;28;20020;-42
2024/02/29 00:42:05;;;;;;;12.48;8.95;;;11.70;94.20;;;;;;5072817;28;20497;-42
2024/02/29 00:44:31;;;;;;;12.45;8.63;;;11.70;94.30;;;;;;5072851;28;20153;-44
2024/02/29 00:46:56;;;;;;;11.98;8.48;;;11.70;94.60;;;;;;5072697;28;20050;-43
2024/02/29 00:49:22;;;;;;;12.27;8.77;;;11.70;94.30;;;;;;5072739;28;20032;-44
2024/02/29 00:51:48;;;;;;;12.73;8.60;;;11.70;94.30;;;;;;5072798;28;20032;-44
2024/02/29 00:54:13;;;;;;;10.88;7.95;;;11.70;94.40;;;;;;5072629;28;20036;-43
2024/02/29 00:56:39;;;;;;;10.63;7.95;;;11.70;94.30;;;;;;5072515;28;20070;-44
2024/02/29 00:59:04;;;;;;;10.73;7.90;;;11.60;94.30;;;;;;5087719;28;20032;-42
2024/02/29 01:01:30;;;;;;;10.68;8.13;;;11.60;94.30;;;;;;5071411;28;20035;-41
2024/02/29 01:03:56;;;;;;;11.38;8.10;;;11.60;94.30;;;;;;5072502;28;20214;-45
2024/02/29 01:06:21;;;;;;;12.60;8.50;;;11.60;94.30;;;;;;5072385;28;20039;-44
2024/02/29 01:08:47;;;;;;;11.68;8.27;;;11.60;94.40;;;;;;5072286;28;20733;-44
2024/02/29 01:11:12;;;;;;;12.10;8.57;;;11.60;94.40;;;;;;5072205;28;20048;-44
2024/02/29 01:13:38;;;;;;;10.18;7.63;;;11.60;94.40;;;;;;5072263;28;20020;-39
2024/02/29 01:16:04;;;;;;;10.73;8.20;;;11.60;94.40;;;;;;5072148;28;20086;-44
2024/02/29 01:18:29;;;;;;;11.32;8.13;;;11.60;94.40;;;;;;5072081;28;20028;-44
2024/02/29 01:20:55;;;;;;;11.65;8.55;;;11.60;94.40;;;;;;5072022;28;20494;-44
2024/02/29 01:23:20;;;;;;;13.35;8.88;;;11.50;94.40;;;;;;5072289;28;20504;-44
2024/02/29 01:25:46;;;;;;;11.68;8.32;;;11.50;94.70;;;;;;5072043;28;20107;-44
2024/02/29 01:28:12;;;;;;;11.93;8.45;;;11.50;94.40;;;;;;5071694;28;20040;-45
2024/02/29 01:30:37;;;;;;;11.70;8.07;;;11.50;94.60;;;;;;5071882;28;20020;-44
2024/02/29 01:33:03;;;;;;;10.43;7.60;;;11.50;94.40;;;;;;5072023;28;20029;-42
2024/02/29 01:35:29;;;;;;;10.00;7.80;;;11.50;94.40;;;;;;5071691;28;20394;-44
2024/02/29 01:37:54;;;;;;;13.85;8.38;;;11.50;94.40;;;;;;5070164;28;20021;-44
2024/02/29 01:40:20;;;;;;;10.50;8.32;;;11.50;94.40;;;;;;5071726;28;20025;-44
2024/02/29 01:42:46;;;;;;;9.38;7.05;;;11.50;94.40;;;;;;5071961;28;20103;-41
2024/02/29 01:45:16;;;;;;;11.25;8.77;;;11.50;94.40;;;;;;5071848;28;20029;-42
2024/02/29 01:47:42;;;;;;;12.73;8.40;;;11.50;94.40;;;;;;5071385;28;20111;-44
2024/02/29 01:50:10;;;;;;;11.75;7.50;;;11.50;94.40;;;;;;5071483;28;20555;-44
2024/02/29 01:52:42;;;;;;;11.32;8.07;;;11.40;94.40;;;;;;5071538;28;20043;-44
2024/02/29 01:55:08;;;;;;;9.95;7.57;;;11.40;94.40;;;;;;5071682;28;20570;-41
2024/02/29 01:57:34;;;;;;;12.32;7.82;;;11.40;94.40;;;;;;5071293;28;20020;-41
2024/02/29 01:59:59;;;;;;;11.32;8.23;;;11.40;94.40;;;;;;5071338;28;20067;-41
2024/02/29 02:02:25;;;;;;;10.55;8.05;;;11.40;94.40;;;;;;5072011;28;20049;-44
2024/02/29 02:04:51;;;;;;;10.38;8.02;;;11.40;94.40;;;;;;5071396;28;20052;-44
2024/02/29 02:07:16;;;;;;;10.68;7.85;;;11.40;94.40;;;;;;5070999;28;20020;-42
2024/02/29 02:09:43;;;;;;;10.95;7.35;;;11.40;94.40;;;;;;5071362;28;20044;-39
2024/02/29 02:12:11;;;;;;;10.25;7.63;;;11.40;94.40;;;;;;5071552;28;20382;-42
2024/02/29 02:14:39;;;;;;;12.10;7.82;;;11.40;94.40;;;;;;5071122;28;20035;-44
2024/02/29 02:17:09;;;;;;;10.82;7.30;;;11.40;94.60;;;;;;5071017;28;20025;-42
2024/02/29 02:19:35;;;;;;;9.48;6.97;;;11.40;94.40;;;;;;5070907;28;20020;-44
2024/02/29 02:22:04;;;;;;;8.77;7.10;;;11.40;94.40;;;;;;5071163;28;20482;-42
2024/02/29 02:24:33;;;;;;;10.88;7.40;;;11.30;94.40;;;;;;5071141;28;20024;-44
2024/02/29 02:26:59;;;;;;;10.07;7.65;;;11.30;94.40;;;;;;5070769;28;20033;-44
2024/02/29 02:29:25;;;;;;;10.18;7.20;;;11.30;94.80;;;;;;5070898;28;20394;-44
2024/02/29 02:31:50;;;;;;;11.60;7.93;;;11.30;94.40;;;;;;5071075;28;20483;-44
2024/02/29 02:34:16;;;;;;;10.68;7.65;;;11.30;94.40;;;;;;5070847;28;20105;-43
2024/02/29 02:36:42;;;;;;;9.70;6.97;;;11.30;94.40;;;;;;5070941;28;20032;-44
2024/02/29 02:39:07;;;;;;;11.00;7.72;;;11.30;94.40;;;;;;5070672;28;20021;-44
2024/02/29 02:41:33;;;;;;;9.80;7.93;;;11.30;94.40;;;;;;5071074;28;20024;-44
2024/02/29 02:43:59;;;;;;;10.40;7.72;;;11.30;94.40;;;;;;5070989;28;20036;-44
2024/02/29 02:46:24;;;;;;;9.73;7.30;;;11.30;94.40;;;;;;5070773;28;20067;-45
2024/02/29 02:48:50;;;;;;;9.88;7.35;;;11.30;94.40;;;;;;5070205;28;20033;-43
2024/02/29 02:51:15;;;;;;;10.73;7.38;;;11.30;94.40;;;;;;5070707;28;20028;-41
2024/02/29 02:53:41;;;;;;;10.55;7.68;;;11.30;94.40;;;;;;5070890;28;20112;-42
2024/02/29 02:56:07;;;;;;;9.85;7.22;;;11.20;94.40;;;;;;5070763;28;20029;-41
2024/02/29 02:58:33;;;;;;;9.48;7.13;;;11.20;94.40;;;;;;5070676;28;20017;-42
2024/02/29 03:00:58;;;;;;;9.85;7.40;;;11.20;94.40;;;;;;5070584;28;20017;-44
2024/02/29 03:03:24;;;;;;;10.05;6.88;;;11.20;94.40;;;;;;5070657;28;20032;-44
2024/02/29 03:05:49;;;;;;;9.73;7.00;;;11.20;94.40;;;;;;5070711;28;20074;-42
2024/02/29 03:08:15;;;;;;;9.82;7.10;;;11.20;94.40;;;;;;5070560;28;20029;-44
2024/02/29 03:10:40;;;;;;;9.65;6.88;;;11.20;94.40;;;;;;5070547;28;20071;-43
2024/02/29 03:13:06;;;;;;;9.05;7.10;;;11.20;94.40;;;;;;5070703;28;20553;-41
2024/02/29 03:15:32;;;;;;;10.02;7.32;;;11.20;94.40;;;;;;5070618;28;20081;-44
2024/02/29 03:17:57;;;;;;;9.88;7.25;;;11.20;94.40;;;;;;5070431;28;20360;-43
2024/02/29 03:20:23;;;;;;;9.13;7.05;;;11.20;94.40;;;;;;5070397;28;20418;-44
2024/02/29 03:22:49;;;;;;;10.23;7.20;;;11.10;94.40;;;;;;5070654;28;20081;-42
2024/02/29 03:25:14;;;;;;;9.13;7.18;;;11.20;94.40;;;;;;5070620;28;20040;-41
2024/02/29 03:27:40;;;;;;;8.73;6.38;;;11.10;94.40;;;;;;5070139;28;20036;-41
2024/02/29 03:30:06;;;;;;;9.35;7.13;;;11.10;94.40;;;;;;5070298;28;20021;-41
2024/02/29 03:32:32;;;;;;;8.63;6.47;;;11.20;94.40;;;;;;5070365;28;20033;-43
2024/02/29 03:34:57;;;;;;;9.38;7.05;;;11.10;94.40;;;;;;5070662;28;20471;-44
2024/02/29 03:37:23;;;;;;;8.88;6.80;;;11.10;94.40;;;;;;5069830;28;20029;-43
2024/02/29 03:39:48;;;;;;;8.18;6.43;;;11.10;94.40;;;;;;5070174;28;20353;-41
2024/02/29 03:42:16;;;;;;;8.57;6.32;;;11.10;94.40;;;;;;5070471;28;20020;-42
2024/02/29 03:44:43;;;;;;;9.27;6.65;;;11.10;94.40;;;;;;5070346;28;20031;-41
2024/02/29 03:47:10;;;;;;;8.38;6.25;;;11.10;94.40;;;;;;5070321;28;20365;-43
2024/02/29 03:49:36;;;;;;;8.02;6.28;;;11.10;94.40;;;;;;5070179;28;20479;-41
2024/02/29 03:52:02;;;;;;;9.05;6.30;;;11.10;94.40;;;;;;5070598;28;20048;-44
2024/02/29 03:54:28;;;;;;;9.23;6.88;;;11.10;94.40;;;;;;5070418;28;20104;-44
2024/02/29 03:56:54;;;;;;;8.35;6.50;;;11.10;94.50;;;;;;5070100;28;20539;-44
2024/02/29 03:59:20;;;;;;;7.78;5.88;;;11.10;94.40;;;;;;5070027;28;20027;-43
2024/02/29 04:01:49;;;;;;;8.65;6.50;;;11.10;94.40;;;;;;5073461;28;20025;-44
2024/02/29 04:04:19;;;;;;;7.75;6.32;;;11.10;94.40;;;;;;5074034;28;20035;-43
2024/02/29 04:06:45;;;;;;;7.63;6.13;;;11.10;94.80;;;;;;5073735;28;20100;-42
2024/02/29 04:09:11;;;;;;;8.88;6.60;;;11.00;94.40;;;;;;5073678;28;20107;-44
2024/02/29 04:11:37;;;;;;;9.80;6.72;;;11.10;94.50;;;;;;5073622;28;20017;-44
2024/02/29 04:14:06;;;;;;;8.20;6.20;;;11.00;94.40;;;;;;5073491;28;20505;-41
2024/02/29 04:16:38;;;;;;;9.18;6.40;;;11.00;94.40;;;;;;5073723;28;20386;-44
2024/02/29 04:19:05;;;;;;;8.60;6.32;;;11.00;94.40;;;;;;5073477;28;20373;-44
2024/02/29 04:21:34;;;;;;;8.95;6.45;;;11.00;94.40;;;;;;5073655;28;20055;-44
2024/02/29 04:24:00;;;;;;;8.55;6.22;;;11.00;94.40;;;;;;5073476;28;20490;-44
2024/02/29 04:26:26;;;;;;;7.95;6.25;;;11.00;94.50;;;;;;5073465;28;20025;-43
2024/02/29 04:28:53;;;;;;;9.07;6.80;;;11.00;94.40;;;;;;5073354;28;20032;-44
2024/02/29 04:31:18;;;;;;;8.18;6.50;;;11.00;94.40;;;;;;5073327;28;20071;-43
2024/02/29 04:33:44;;;;;;;8.38;6.15;;;11.00;94.40;;;;;;5073518;28;20025;-44
2024/02/29 04:36:10;;;;;;;7.32;5.88;;;11.00;94.40;;;;;;5072511;28;20060;-44
2024/02/29 04:38:35;;;;;;;8.38;6.28;;;11.00;94.40;;;;;;5073078;28;20033;-42
2024/02/29 04:41:01;;;;;;;6.97;5.65;;;11.00;94.50;;;;;;5072804;28;20067;-44
2024/02/29 04:43:27;;;;;;;7.43;6.05;;;11.00;94.50;;;;;;5073039;28;20082;-42
2024/02/29 04:45:54;;;;;;;7.25;5.97;;;10.90;94.40;;;;;;5072926;28;20036;-43
2024/02/29 04:48:20;;;;;;;7.28;5.68;;;10.90;94.50;;;;;;5072776;28;20032;-40
2024/02/29 04:50:46;;;;;;;7.57;5.78;;;10.90;94.40;;;;;;5072606;28;20032;-44
2024/02/29 04:53:12;;;;;;;8.70;5.93;;;10.90;94.40;;;;;;5072825;28;20036;-44
2024/02/29 04:55:37;;;;;;;8.82;5.78;;;10.90;94.40;;;;;;5072578;28;20067;-44
2024/02/29 04:58:04;;;;;;;8.07;6.00;;;10.90;94.50;;;;;;5072555;28;20043;-43
2024/02/29 05:00:29;;;;;;;8.18;6.03;;;10.90;94.40;;;;;;5072544;28;20020;-44
2024/02/29 05:02:55;;;;;;;7.82;5.95;;;10.90;94.50;;;;;;5072555;28;20031;-44
2024/02/29 05:05:21;;;;;;;9.02;6.63;;;10.90;94.40;;;;;;5072678;28;20050;-41
2024/02/29 05:07:47;;;;;;;7.82;6.40;;;10.90;94.50;;;;;;5072254;28;20478;-44
2024/02/29 05:10:12;;;;;;;8.85;6.32;;;10.90;94.50;;;;;;5072256;28;20029;-44
2024/02/29 05:12:38;;;;;;;8.75;6.57;;;10.90;94.50;;;;;;5072360;28;20060;-44
2024/02/29 05:15:04;;;;;;;8.77;6.22;;;10.90;94.40;;;;;;5072487;28;20074;-44
2024/02/29 05:17:30;;;;;;;8.13;5.85;;;10.90;94.50;;;;;;5072037;28;20078;-43
2024/02/29 05:19:56;;;;;;;8.88;5.90;;;10.90;94.50;;;;;;5072097;28;20382;-44
2024/02/29 05:22:22;;;;;;;8.60;6.03;;;10.90;94.40;;;;;;5072254;28;20070;-44
2024/02/29 05:24:47;;;;;;;7.80;6.00;;;10.90;94.40;;;;;;5072267;28;20029;-42
2024/02/29 05:27:13;;;;;;;8.48;5.80;;;10.80;94.40;;;;;;5071864;28;20119;-42
2024/02/29 05:29:39;;;;;;;7.90;5.85;;;10.90;94.50;;;;;;5071892;28;20035;-44
2024/02/29 05:32:05;;;;;;;8.18;5.43;;;10.80;94.40;;;;;;5072011;28;20103;-44
2024/02/29 05:34:30;;;;;;;8.13;6.10;;;10.80;94.40;;;;;;5071965;28;20505;-44
2024/02/29 05:36:56;;;;;;;7.43;5.97;;;10.80;94.40;;;;;;5071198;28;20040;-44
2024/02/29 05:39:23;;;;;;;8.50;6.60;;;10.80;94.40;;;;;;5071600;28;20021;-44
2024/02/29 05:41:48;;;;;;;9.23;6.70;;;10.80;94.40;;;;;;5072253;28;20021;-44
2024/02/29 05:44:14;;;;;;;7.88;6.35;;;10.80;94.40;;;;;;5071680;28;20044;-40
2024/02/29 05:46:40;;;;;;;8.32;6.40;;;10.80;94.40;;;;;;5071627;28;20395;-44
2024/02/29 05:49:05;;;;;;;7.72;5.90;;;10.80;94.40;;;;;;5071281;28;20428;-44
2024/02/29 05:51:31;;;;;;;7.82;5.90;;;10.80;94.40;;;;;;5071628;28;20029;-44
2024/02/29 05:53:56;;;;;;;7.72;5.97;;;10.80;94.40;;;;;;5071655;28;20488;-44
2024/02/29 05:56:22;;;;;;;7.53;6.00;;;10.80;94.40;;;;;;5071550;28;20543;-43
2024/02/29 05:58:48;;;;;;;8.02;6.25;;;10.80;94.40;;;;;;5071172;28;20078;-43
2024/02/29 06:01:13;;;;;;;8.02;6.20;;;10.80;94.40;;;;;;5071492;28;20024;-43
2024/02/29 06:03:39;;;;;;;9.93;6.85;;;10.70;94.40;;;;;;5071514;28;20497;-43
2024/02/29 06:06:05;;;;;;;7.95;6.40;;;10.80;94.50;;;;;;5071384;28;20048;-43
2024/02/29 06:08:30;;;;;;;8.70;6.38;;;10.80;94.50;;;;;;5071079;28;20512;-43
2024/02/29 06:10:56;;;;;;;8.50;6.38;;;10.80;94.50;;;;;;5071211;28;20028;-43
2024/02/29 06:13:22;;;;;;;8.63;6.78;;;10.80;94.60;;;;;;5071227;28;20032;-43
2024/02/29 06:15:48;;;;;;;8.05;5.90;;;10.80;94.60;;;;;;5071071;28;20032;-43
2024/02/29 06:18:14;;;;;;;8.43;6.85;;;10.80;94.60;;;;;;5070876;28;20060;-43
2024/02/29 06:20:39;;;;;;;8.25;6.05;;;10.80;94.60;;;;;;5071049;28;20025;-43
2024/02/29 06:23:05;;;;;;;10.55;6.03;;;10.80;94.60;;;;;;5070616;28;20025;-42
2024/02/29 06:25:31;;;;;;;7.68;5.80;;;10.80;94.60;;;;;;5071038;28;20028;-43
2024/02/29 06:27:57;;;;;;;9.38;5.82;;;10.80;94.60;;;;;;5070942;28;20134;-40
2024/02/29 06:30:31;;;;;;;8.27;6.10;;;10.90;94.60;;;;;;5071538;28;20163;-44
2024/02/29 06:32:58;;;;;;;7.38;5.63;;;10.90;94.60;;;;;;5071240;28;20035;-44
2024/02/29 06:35:23;;;;;;;9.55;6.15;;;10.90;94.60;;;;;;5070932;28;20033;-41
2024/02/29 06:37:49;;;;;;;8.90;6.43;;;10.90;94.60;;;;;;5070489;28;20418;-44
2024/02/29 06:40:15;;;;;;;8.27;5.40;;;11.00;94.60;;;;;;5070814;28;20099;-44
2024/02/29 06:42:40;;;;;;;8.30;5.53;;;11.10;94.60;;;;;;5070957;28;20097;-42
2024/02/29 06:45:07;;;;;;;7.97;5.80;;;11.10;94.50;;;;;;5071225;28;20032;-44
2024/02/29 06:47:33;;;;;;;7.43;5.40;;;11.20;94.50;;;;;;5070730;28;20028;-43
2024/02/29 06:50:00;;;;;;;8.77;6.53;;;11.20;94.40;;;;;;5070690;28;20021;-44
2024/02/29 06:52:26;;;;;;;7.50;5.95;;;11.30;94.40;;;;;;5070808;28;20023;-40
2024/02/29 06:54:52;;;;;;;6.25;5.28;;;11.40;94.30;;;;;;5070717;28;20128;-44
2024/02/29 06:57:18;;;;;;;8.38;5.68;;;11.40;94.20;;;;;;5070620;28;20475;-42
2024/02/29 06:59:43;;;;;;;7.07;5.43;;;11.50;94.20;;;;;;5070672;28;20071;-44
2024/02/29 07:02:09;;;;;;;9.23;5.70;;;11.50;94.00;;;;;;5070870;28;20042;-43
2024/02/29 07:04:35;;;;;;;9.75;5.93;;;11.60;94.00;;;;;;5070784;28;20040;-44
2024/02/29 07:07:00;;;;;;;8.50;5.78;;;11.70;93.90;;;;;;5070514;28;20029;-44
2024/02/29 07:09:26;;;;;;;6.97;5.38;;;11.70;93.80;;;;;;5070510;28;20066;-44
2024/02/29 07:11:52;;;;;;;7.93;5.40;;;11.80;94.10;;;;;;5070576;28;20017;-43
2024/02/29 07:14:18;;;;;;;6.93;5.13;;;11.90;93.70;;;;;;5070829;28;20028;-44
2024/02/29 07:16:44;;;;;;;7.20;5.32;;;11.90;93.60;;;;;;5070554;28;20016;-44
2024/02/29 07:19:09;;;;;;;8.25;6.22;;;12.00;93.50;;;;;;5070334;28;20029;-44
2024/02/29 07:21:35;;;;;;;7.30;5.10;;;12.10;93.40;;;;;;5069975;28;20067;-45
2024/02/29 07:24:02;;;;;;;6.57;5.03;;;12.10;93.40;;;;;;5070450;28;20013;-44
2024/02/29 07:26:28;;;;;;;6.65;5.03;;;12.20;93.30;;;;;;5070395;28;20031;-44
2024/02/29 07:28:54;;;;;;;7.20;5.00;;;12.30;93.30;;;;;;5070190;28;20032;-44
2024/02/29 07:31:19;;;;;;;6.45;4.90;;;12.40;93.20;;;;;;5070319;28;20029;-44
2024/02/29 07:33:46;;;;;;;6.85;5.07;;;12.40;93.20;;;;;;5070735;28;20060;-44
2024/02/29 07:36:12;;;;;;;6.63;5.00;;;12.50;93.10;;;;;;5074007;28;20051;-44
2024/02/29 07:38:38;;;;;;;6.22;4.78;;;12.60;93.10;;;;;;5074066;28;20382;-44
2024/02/29 07:41:04;;;;;;;7.25;4.63;;;12.70;93.00;;;;;;5074044;28;20471;-41
2024/02/29 07:43:29;;;;;;;4.85;4.30;;;12.70;92.90;;;;;;5074048;28;20406;-43
2024/02/29 07:45:55;;;;;;;6.55;4.28;;;12.80;92.90;;;;;;5074241;28;20024;-45
2024/02/29 07:48:20;;;;;;;5.55;4.55;;;12.90;92.80;;;;;;5074174;28;20329;-45
2024/02/29 07:50:46;;;;;;;5.22;4.30;;;13.00;92.80;;;;;;5073675;28;20036;-44
2024/02/29 07:53:12;;;;;;;5.90;4.60;;;13.10;92.70;;;;;;5074358;28;20107;-44
2024/02/29 07:55:37;;;;;;;5.43;4.53;;;13.20;92.60;;;;;;5074044;28;20021;-43
2024/02/29 07:58:05;;;;;;;6.60;4.82;;;13.20;92.50;;;;;;5073732;28;20036;-44
2024/02/29 08:00:30;;;;;;;6.90;4.72;;;13.30;92.40;;;;;;5073677;28;20020;-44
2024/02/29 08:02:56;;;;;;;6.65;4.45;;;13.40;92.30;;;;;;5073824;28;20020;-44
2024/02/29 08:05:22;;;;;;;7.22;4.75;;;13.50;92.20;;;;;;5073614;28;20450;-44
2024/02/29 08:07:48;;;;;;;5.72;4.03;;;13.60;92.10;;;;;;5073583;28;20029;-44
2024/02/29 08:10:15;;;;;;;5.53;4.32;;;13.60;92.00;;;;;;5073613;28;20028;-44
2024/02/29 08:12:43;;;;;;;7.22;4.68;;;13.80;91.90;;;;;;5073680;28;20048;-44
2024/02/29 08:15:09;;;;;;;7.18;4.22;;;13.80;91.80;;;;;;5073648;28;20078;-45
2024/02/29 08:17:35;;;;;;;6.10;4.43;;;14.00;91.80;;;;;;5073330;28;20025;-39
2024/02/29 08:20:01;;;;;;;5.55;3.50;;;14.00;91.60;;;;;;5071905;28;20028;-44
2024/02/29 08:22:27;;;;;;;6.05;4.28;;;14.10;91.60;;;;;;5073524;28;20029;-45
2024/02/29 08:24:53;;;;;;;5.10;3.95;;;14.20;91.50;;;;;;5073485;28;20486;-42
2024/02/29 08:27:18;;;;;;;5.82;3.75;;;14.30;91.40;;;;;;5073152;28;20101;-44
2024/02/29 08:29:44;;;;;;;5.10;3.95;;;14.40;91.30;;;;;;5073132;28;20068;-45
2024/02/29 08:32:09;;;;;;;4.75;4.10;;;14.50;91.20;;;;;;5073607;28;20052;-44
2024/02/29 08:34:35;;;;;;;4.85;3.75;;;14.60;91.20;;;;;;5073044;28;20027;-45
2024/02/29 08:37:02;;;;;;;4.78;3.50;;;14.70;91.10;;;;;;5073100;28;20020;-44
2024/02/29 08:39:27;;;;;;;4.25;3.67;;;14.80;91.00;;;;;;5072996;28;20017;-42
2024/02/29 08:41:53;;;;;;;5.53;4.10;;;14.90;90.90;;;;;;5073306;28;20386;-44
2024/02/29 08:44:19;;;;;;;4.50;3.53;;;14.90;90.80;;;;;;5073281;28;20386;-42
2024/02/29 08:46:44;;;;;;;5.03;3.90;;;15.00;90.70;;;;;;5072193;28;20039;-43
2024/02/29 08:49:10;;;;;;;4.50;3.70;;;15.10;90.60;;;;;;5072605;28;20039;-44
2024/02/29 08:51:36;;;;;;;5.07;3.70;;;15.20;90.50;;;;;;5073138;28;20052;-44
2024/02/29 08:54:03;;;;;;;6.32;3.90;;;15.30;90.40;;;;;;5072969;28;20021;-45
2024/02/29 08:56:29;;;;;;;4.72;3.47;;;15.40;90.30;;;;;;5072006;28;20025;-44
2024/02/29 08:58:55;;;;;;;15.40;10.32;;;15.40;90.20;;;;;;5072711;28;20131;-43
2024/02/29 09:01:20;;;;;;;14.23;9.38;;;15.50;89.90;;;;;;5073295;28;20020;-44
2024/02/29 09:03:46;;;;;;;13.73;8.88;;;15.60;89.50;;;;;;5072375;28;20024;-44
2024/02/29 09:06:13;;;;;;;13.65;8.57;;;15.70;89.40;;;;;;5072756;28;20036;-44
2024/02/29 09:08:39;;;;;;;14.55;9.32;;;15.80;89.30;;;;;;5072467;28;20047;-42
2024/02/29 09:11:05;;;;;;;10.63;7.82;;;15.80;89.00;;;;;;5072304;28;20120;-44
2024/02/29 09:13:30;;;;;;;13.07;9.23;;;15.90;88.80;;;;;;5072705;28;20502;-44
2024/02/29 09:15:56;;;;;;;11.48;8.10;;;16.00;88.70;;;;;;5072520;28;20044;-44
2024/02/29 09:18:22;;;;;;;10.68;7.43;;;16.10;88.50;;;;;;5072118;28;20542;-44
2024/02/29 09:20:48;;;;;;;11.43;7.03;;;16.20;88.30;;;;;;5072035;28;20077;-42
2024/02/29 09:23:14;;;;;;;10.80;7.60;;;16.30;88.20;;;;;;5072241;28;20423;-42
2024/02/29 09:25:39;;;;;;;9.07;6.78;;;16.30;87.90;;;;;;5072064;28;20024;-44
2024/02/29 09:28:05;;;;;;;9.90;7.50;;;16.40;87.80;;;;;;5071884;28;20112;-44
2024/02/29 09:30:31;;;;;;;10.60;7.03;;;16.50;87.60;;;;;;5072374;28;20050;-44
2024/02/29 09:32:56;;;;;;;10.60;7.50;;;16.60;87.40;;;;;;5071810;28;20029;-44
2024/02/29 09:35:22;;;;;;;9.80;6.88;;;16.70;87.20;;;;;;5072202;28;20158;-43
2024/02/29 09:37:48;;;;;;;9.00;6.47;;;16.80;87.10;;;;;;5070453;28;20031;-44
2024/02/29 09:40:15;;;;;;;8.95;6.38;;;16.80;86.90;;;;;;5071807;28;20025;-44
2024/02/29 09:42:44;;;;;;;8.38;6.40;;;16.90;86.70;;;;;;5072170;28;20021;-42
2024/02/29 09:45:13;;;;;;;11.13;6.60;;;17.00;86.50;;;;;;5072206;28;20046;-44
2024/02/29 09:47:40;;;;;;;8.45;6.28;;;17.10;86.30;;;;;;5071413;28;20025;-44
2024/02/29 09:50:08;;;;;;;6.68;5.75;;;17.10;86.10;;;;;;5071439;28;20526;-44
2024/02/29 09:52:39;;;;;;;8.95;6.00;;;17.20;85.90;;;;;;5071657;28;20043;-44
2024/02/29 09:55:10;;;;;;;9.60;5.60;;;17.30;85.80;;;;;;5071670;28;20032;-44
2024/02/29 09:57:36;;;;;;;8.48;5.60;;;17.40;85.60;;;;;;5071013;28;20025;-44
2024/02/29 10:00:03;;;;;;;8.38;5.65;;;17.50;85.40;;;;;;5071565;28;20020;-44
2024/02/29 10:02:29;;;;;;;6.97;5.60;;;17.60;85.30;;;;;;5071408;28;20487;-44
2024/02/29 10:04:54;;;;;;;8.40;5.35;;;17.70;85.10;;;;;;5071415;28;20059;-42
2024/02/29 10:07:20;;;;;;;7.78;6.25;;;17.70;84.90;;;;;;5071285;28;20060;-43
2024/02/29 10:09:45;;;;;;;16.40;7.38;;;17.80;84.70;;;;;;5071063;28;20534;-43
2024/02/29 10:12:17;;;;;;;8.95;6.75;;;17.90;84.40;;;;;;5071440;28;20086;-44
2024/02/29 10:14:43;;;;;;;11.95;7.10;;;17.90;84.10;;;;;;5071065;28;20199;-44
2024/02/29 10:17:09;;;;;;;8.50;5.78;;;18.00;84.10;;;;;;5071087;28;20070;-44
2024/02/29 10:19:38;;;;;;;8.48;6.47;;;18.00;83.90;;;;;;5070960;28;20028;-44
2024/02/29 10:22:04;;;;;;;6.85;5.50;;;18.10;83.80;;;;;;5071188;28;20020;-43
2024/02/29 10:24:30;;;;;;;8.63;5.85;;;18.20;83.60;;;;;;5071488;28;20386;-43
2024/02/29 10:27:02;;;;;;;8.45;5.90;;;18.30;83.50;;;;;;5070783;28;20128;-43
2024/02/29 10:29:31;;;;;;;9.10;5.90;;;18.40;83.40;;;;;;5071074;28;20367;-44
2024/02/29 10:31:58;;;;;;;7.45;5.30;;;18.40;83.10;;;;;;5071230;28;20054;-44
2024/02/29 10:34:24;;;;;;;8.23;5.60;;;18.50;83.00;;;;;;5071146;28;20032;-41
2024/02/29 10:36:50;;;;;;;11.43;5.47;;;18.60;82.90;;;;;;5070819;28;20020;-44
2024/02/29 10:39:16;;;;;;;8.80;5.80;;;18.70;82.70;;;;;;5071361;28;20024;-44
2024/02/29 10:41:49;;;;;;;6.22;4.55;;;18.80;82.50;;;;;;5070971;28;20016;-44
2024/02/29 10:44:19;;;;;;;7.18;4.55;;;18.80;82.30;;;;;;5071034;28;20032;-44
2024/02/29 10:46:50;;;;;;;7.53;5.30;;;18.90;82.20;;;;;;5070967;28;20463;-44
2024/02/29 10:49:33;;;;;;;7.05;4.70;;;19.00;82.00;;;;;;5070783;28;20363;-44
2024/02/29 10:52:07;;;;;;;6.57;4.88;;;19.10;81.90;;;;;;5070869;28;20063;-44
2024/02/29 10:54:51;;;;;;;6.53;4.68;;;19.10;81.70;;;;;;5070954;28;20028;-42
2024/02/29 10:57:24;;;;;;;5.93;4.10;;;19.20;81.50;;;;;;5071142;28;20028;-41
2024/02/29 10:59:58;;;;;;;5.13;4.28;;;19.30;81.40;;;;;;5070695;28;20069;-42
2024/02/29 11:02:25;;;;;;;7.20;4.25;;;19.30;81.20;;;;;;5070918;28;20032;-44
2024/02/29 11:04:52;;;;;;;7.32;4.50;;;19.40;81.10;;;;;;5070899;28;20078;-44
2024/02/29 11:07:19;;;;;;;6.45;4.95;;;19.50;81.00;;;;;;5070558;28;20031;-44
2024/02/29 11:09:45;;;;;;;5.57;4.25;;;19.60;80.90;;;;;;5072434;28;20035;-44
2024/02/29 11:12:16;;;;;;;5.75;4.10;;;19.60;80.70;;;;;;5075028;28;20505;-42
2024/02/29 11:14:47;;;;;;;5.53;3.97;;;19.70;80.60;;;;;;5075108;28;20462;-45
2024/02/29 11:17:14;;;;;;;5.70;3.97;;;19.80;80.40;;;;;;5074724;28;20040;-45
2024/02/29 11:19:40;;;;;;;5.30;4.20;;;19.80;80.20;;;;;;5074486;28;20017;-44
2024/02/29 11:22:12;;;;;;;5.93;4.38;;;19.90;80.10;;;;;;5075260;28;20445;-44
2024/02/29 11:24:40;;;;;;;5.18;3.85;;;19.90;79.90;;;;;;5074744;28;20024;-44
2024/02/29 11:27:13;;;;;;;5.53;3.80;;;20.00;79.80;;;;;;5074269;28;20021;-45
2024/02/29 11:29:42;;;;;;;5.90;3.83;;;20.00;79.60;;;;;;5074148;28;20037;-44
2024/02/29 11:32:07;;;;;;;4.57;3.60;;;20.10;79.60;;;;;;5074429;28;20024;-43
2024/02/29 11:34:33;;;;;;;4.10;3.30;;;20.10;79.40;;;;;;5075064;28;20433;-45
2024/02/29 11:37:01;;;;;;;5.13;3.40;;;20.20;79.30;;;;;;5074188;28;20505;-43
2024/02/29 11:39:27;;;;;;;4.75;3.65;;;20.30;79.20;;;;;;5074055;28;20020;-44
2024/02/29 11:42:04;;;;;;;5.82;3.67;;;20.30;79.10;;;;;;5074160;28;20113;-44
2024/02/29 11:44:31;;;;;;;4.82;3.60;;;20.40;78.90;;;;;;5074129;28;20483;-44
2024/02/29 11:46:57;;;;;;;3.95;3.53;;;20.40;78.80;;;;;;5073842;28;20067;-44
2024/02/29 11:49:25;;;;;;;5.80;3.65;;;20.40;78.70;;;;;;5074060;28;20490;-45
2024/02/29 11:51:52;;;;;;;5.03;3.30;;;20.50;78.60;;;;;;5074027;28;20032;-45
2024/02/29 11:54:18;;;;;;;4.22;3.38;;;20.50;78.50;;;;;;5074186;28;20487;-44
2024/02/29 11:56:44;;;;;;;4.90;3.70;;;20.60;78.40;;;;;;5073950;28;20027;-45
2024/02/29 11:59:10;;;;;;;5.57;3.65;;;20.60;78.30;;;;;;5073879;28;20108;-45
2024/02/29 12:01:37;;;;;;;4.88;3.40;;;20.60;78.20;;;;;;5074442;28;20035;-44
2024/02/29 12:04:04;;;;;;;3.65;3.10;;;20.70;78.20;;;;;;5073993;28;20021;-45
2024/02/29 12:06:30;;;;;;;3.92;3.28;;;20.70;78.00;;;;;;5074428;28;20032;-45
2024/02/29 12:08:56;;;;;;;4.80;3.60;;;20.80;78.00;;;;;;5073450;28;20081;-45
2024/02/29 12:11:22;;;;;;;4.65;3.47;;;20.80;77.90;;;;;;5073420;28;20033;-45
2024/02/29 12:13:48;;;;;;;4.45;3.40;;;20.80;77.80;;;;;;5073629;28;20104;-45
2024/02/29 12:16:15;;;;;;;8.43;4.40;;;20.90;77.70;;;;;;5073454;28;20111;-44
2024/02/29 12:18:41;;;;;;;7.30;5.63;;;21.00;77.60;;;;;;5073655;28;20465;-44
2024/02/29 12:21:07;;;;;;;8.55;5.50;;;21.00;77.30;;;;;;5072279;28;20493;-45
2024/02/29 12:23:33;;;;;;;9.05;5.97;;;21.00;77.00;;;;;;5072873;28;20437;-45
2024/02/29 12:26:13;;;;;;;8.18;5.80;;;21.10;76.80;;;;;;5073358;28;20024;-45
2024/02/29 12:28:42;;;;;;;7.13;5.38;;;21.10;76.50;;;;;;5073150;28;20028;-45
2024/02/29 12:31:08;;;;;;;7.90;5.43;;;21.20;76.50;;;;;;5073164;28;20512;-45
2024/02/29 12:33:53;;;;;;;7.65;4.82;;;21.20;76.30;;;;;;5073265;28;20028;-44
2024/02/29 12:36:21;;;;;;;7.72;5.25;;;21.30;76.20;;;;;;5072987;28;20044;-43
2024/02/29 12:38:48;;;;;;;6.43;4.65;;;21.40;76.30;;;;;;5073672;28;20021;-45